Terminal Aerodrome Forecast
Issued by NWS Charleston, WV

Current Version | Previous Version | Graphics & Text | Print | Product List | Glossary Off
Versions: 1 2 3 4 5 6 7 8 9 10 11 12 13 14 15 16 17 18 19 20

462
FTUS41 KRLX 260545
TAFHTS
TAF
KHTS 260545Z 2606/2706 VRB03KT P6SM FEW150
     FM261600 23007KT P6SM BKN050
     FM261800 26008KT 6SM SHRA VCTS OVC040CB
     FM261900 27009KT 2SM SHRA VCTS OVC035CB
     FM262000 30010KT 5SM SHRA VCTS OVC035CB
     FM262100 31011KT P6SM OVC035
     FM270000 27008KT P6SM BKN050
     FM270500 00000KT 5SM BR FEW250=

USA.gov is the U.S. government's official web portal to all federal, state and local government web resources and services.